Time;durP1;ratioP1;P1;durP2;ratioP2;P2;SDS_P1;SDS_P2;PMS_P1;PMS_P2;Temp;Humidity;BMP_temperature;BMP_pressure;BME280_temperature;BME280_humidity;BME280_pressure;Samples;Min_cycle;Max_cycle;Signal;HPM_P1;HPM_P2
2021/11/26 00:01:54;;;;;;;7.43;4.90;;;17.20;53.40;;;;;;10442873;28;20210;-65
2021/11/26 00:07:16;;;;;;;7.20;5.23;;;17.20;53.20;;;;;;10444895;28;20201;-66
2021/11/26 00:12:39;;;;;;;8.03;5.57;;;17.20;53.30;;;;;;10444025;28;20221;-66
2021/11/26 00:18:06;;;;;;;6.40;4.87;;;17.20;53.40;;;;;;10480840;28;20208;-66
2021/11/26 00:23:29;;;;;;;7.33;4.57;;;17.20;53.40;;;;;;10461093;28;20216;-65
2021/11/26 00:28:51;;;;;;;6.73;4.70;;;17.20;53.50;;;;;;10415764;28;20236;-65
2021/11/26 00:34:14;;;;;;;6.87;5.03;;;17.20;53.50;;;;;;10415553;28;20202;-65
2021/11/26 00:39:36;;;;;;;6.50;5.00;;;17.20;53.50;;;;;;10414931;28;20226;-65
2021/11/26 00:44:59;;;;;;;9.57;5.43;;;17.20;53.60;;;;;;10414944;28;20227;-66
2021/11/26 00:50:22;;;;;;;6.20;4.80;;;17.10;53.50;;;;;;10415256;28;20224;-65
2021/11/26 00:55:45;;;;;;;8.27;4.90;;;17.10;53.40;;;;;;10410010;28;20202;-65
2021/11/26 01:01:07;;;;;;;6.53;4.57;;;17.10;53.30;;;;;;10413519;28;20233;-65
2021/11/26 01:06:31;;;;;;;7.53;5.27;;;17.10;53.40;;;;;;10414754;28;20712;-65
2021/11/26 01:11:54;;;;;;;8.97;5.20;;;17.10;53.30;;;;;;10455755;28;20228;-65
2021/11/26 01:17:16;;;;;;;8.83;5.03;;;17.20;53.20;;;;;;10455542;28;20591;-65
2021/11/26 01:22:39;;;;;;;7.70;4.77;;;17.20;53.10;;;;;;10455940;28;20224;-65
2021/11/26 01:28:02;;;;;;;6.40;4.73;;;17.20;53.10;;;;;;10454669;28;20200;-65
2021/11/26 01:33:25;;;;;;;6.83;5.17;;;17.10;53.10;;;;;;10453749;28;20217;-65
2021/11/26 01:38:49;;;;;;;7.73;5.00;;;17.20;53.20;;;;;;10454696;28;20197;-65
2021/11/26 01:44:11;;;;;;;8.77;4.90;;;17.10;53.20;;;;;;10453885;28;20185;-65
2021/11/26 01:49:33;;;;;;;5.47;4.17;;;17.10;53.20;;;;;;10412840;28;20213;-65
2021/11/26 01:54:57;;;;;;;7.07;5.03;;;17.10;53.30;;;;;;10411085;28;20569;-65
2021/11/26 02:00:24;;;;;;;6.77;4.60;;;17.10;53.30;;;;;;10419317;28;20224;-65
2021/11/26 02:05:47;;;;;;;8.03;5.10;;;17.10;53.30;;;;;;10414947;28;20197;-64
2021/11/26 02:11:10;;;;;;;6.57;4.50;;;17.10;53.20;;;;;;10411343;28;20241;-65
2021/11/26 02:16:42;;;;;;;8.17;4.53;;;17.10;53.20;;;;;;10411475;28;20230;-65
2021/11/26 02:22:06;;;;;;;6.20;4.43;;;17.10;53.20;;;;;;10410281;28;20220;-66
2021/11/26 02:27:28;;;;;;;6.23;4.67;;;17.00;53.20;;;;;;10410939;28;20576;-65
2021/11/26 02:32:54;;;;;;;6.53;4.30;;;17.00;53.10;;;;;;10410717;28;20221;-64
2021/11/26 02:38:18;;;;;;;6.93;4.77;;;17.10;53.10;;;;;;10410804;28;20668;-65
2021/11/26 02:43:40;;;;;;;7.10;4.90;;;17.00;53.20;;;;;;10410845;28;20213;-65
2021/11/26 02:49:03;;;;;;;10.23;5.23;;;17.00;53.20;;;;;;10410196;28;20221;-64
2021/11/26 02:54:26;;;;;;;6.47;4.50;;;17.00;53.20;;;;;;10410541;28;20206;-65
2021/11/26 02:59:48;;;;;;;6.63;4.43;;;17.00;53.20;;;;;;10410340;28;20214;-65
2021/11/26 03:05:11;;;;;;;6.53;4.70;;;17.00;53.20;;;;;;10414924;28;20201;-65
2021/11/26 03:10:36;;;;;;;7.47;5.33;;;17.00;53.20;;;;;;10450861;28;20228;-65
2021/11/26 03:15:59;;;;;;;7.70;4.57;;;17.00;53.20;;;;;;10451392;28;20193;-65
2021/11/26 03:21:21;;;;;;;7.77;4.93;;;17.00;53.10;;;;;;10450789;28;20213;-66
2021/11/26 03:26:45;;;;;;;7.43;5.10;;;17.10;53.10;;;;;;10452223;28;20200;-65
2021/11/26 03:32:07;;;;;;;9.07;5.07;;;17.10;53.20;;;;;;10451689;28;20750;-66
2021/11/26 03:37:29;;;;;;;7.00;4.57;;;17.10;53.30;;;;;;10450417;28;20200;-65
2021/11/26 03:42:54;;;;;;;7.27;5.13;;;17.00;53.20;;;;;;10450718;28;20221;-65
2021/11/26 03:48:16;;;;;;;8.90;4.90;;;17.10;53.20;;;;;;10414121;28;20204;-65
2021/11/26 03:53:38;;;;;;;7.73;4.73;;;17.00;53.20;;;;;;10368787;28;20740;-65
2021/11/26 03:59:05;;;;;;;6.63;4.93;;;17.00;53.30;;;;;;10397734;28;20214;-65
2021/11/26 04:04:27;;;;;;;7.90;5.00;;;17.00;53.40;;;;;;10419052;28;20584;-65
2021/11/26 04:09:50;;;;;;;7.90;5.10;;;17.00;53.30;;;;;;10416724;28;20221;-65
2021/11/26 04:15:14;;;;;;;7.50;4.80;;;17.10;53.30;;;;;;10415374;28;20201;-65
2021/11/26 04:20:38;;;;;;;7.53;4.90;;;17.00;53.40;;;;;;10415830;28;20222;-66
2021/11/26 04:26:00;;;;;;;8.13;5.27;;;17.00;53.40;;;;;;10415830;28;20223;-65
2021/11/26 04:31:24;;;;;;;7.67;4.83;;;17.00;53.40;;;;;;10415384;28;20708;-65
2021/11/26 04:36:46;;;;;;;9.43;5.30;;;17.10;53.20;;;;;;10415439;28;20205;-65
2021/11/26 04:42:09;;;;;;;6.80;4.63;;;17.10;53.20;;;;;;10415253;28;20696;-65
2021/11/26 04:47:32;;;;;;;8.20;5.30;;;17.10;53.10;;;;;;10415321;28;20198;-65
2021/11/26 04:52:54;;;;;;;7.33;4.83;;;17.10;53.00;;;;;;10412110;28;20222;-64
2021/11/26 04:58:17;;;;;;;7.27;4.23;;;17.10;53.00;;;;;;10417283;28;20198;-65
2021/11/26 05:03:40;;;;;;;6.70;4.53;;;17.20;53.10;;;;;;10368149;28;20210;-65
2021/11/26 05:09:05;;;;;;;7.83;4.97;;;17.20;53.20;;;;;;10367822;28;20218;-65
2021/11/26 05:14:30;;;;;;;8.27;4.60;;;17.20;53.30;;;;;;10414898;28;20221;-65
2021/11/26 05:19:54;;;;;;;7.17;3.73;;;17.20;53.40;;;;;;10408635;28;20217;-66
2021/11/26 05:25:16;;;;;;;8.47;4.67;;;17.20;53.60;;;;;;10407908;28;20194;-66
2021/11/26 05:30:38;;;;;;;8.20;4.50;;;17.10;53.60;;;;;;10407599;28;20234;-65
2021/11/26 05:36:02;;;;;;;9.00;4.57;;;17.10;53.50;;;;;;10407509;28;20205;-66
2021/11/26 05:41:24;;;;;;;6.47;4.37;;;17.20;53.40;;;;;;10405909;28;20426;-65
2021/11/26 05:46:46;;;;;;;7.93;4.90;;;17.20;53.40;;;;;;10426754;22;20248;-64
2021/11/26 05:52:10;;;;;;;8.90;5.27;;;17.20;53.30;;;;;;10410652;28;20221;-64
2021/11/26 05:57:32;;;;;;;9.37;4.80;;;17.20;53.20;;;;;;10366206;28;20706;-63
2021/11/26 06:02:55;;;;;;;8.27;4.60;;;17.20;53.10;;;;;;10352621;28;20194;-63
2021/11/26 06:08:19;;;;;;;6.23;3.83;;;17.20;53.20;;;;;;10345882;28;20715;-63
2021/11/26 06:13:41;;;;;;;7.70;4.27;;;17.20;53.30;;;;;;10341210;28;20221;-63
2021/11/26 06:19:03;;;;;;;7.87;4.53;;;17.20;53.40;;;;;;10361958;28;20646;-63
2021/11/26 06:24:26;;;;;;;6.93;3.70;;;17.20;53.50;;;;;;10342530;28;20198;-62
2021/11/26 06:29:49;;;;;;;6.80;3.73;;;17.20;53.80;;;;;;10357782;28;20560;-62
2021/11/26 06:35:13;;;;;;;8.90;4.23;;;17.20;54.40;;;;;;10346993;28;20225;-62
2021/11/26 06:40:37;;;;;;;7.20;4.27;;;17.20;54.50;;;;;;10350188;28;20198;-62
2021/11/26 06:45:59;;;;;;;6.83;4.40;;;17.20;54.40;;;;;;10347481;28;20241;-63
2021/11/26 06:51:21;;;;;;;7.27;5.17;;;17.20;54.30;;;;;;10352521;28;20588;-63
2021/11/26 06:56:44;;;;;;;9.57;4.80;;;17.20;54.00;;;;;;10352978;28;20226;-63
2021/11/26 07:02:07;;;;;;;8.67;4.97;;;17.30;53.80;;;;;;10355052;28;20199;-62
2021/11/26 07:07:29;;;;;;;6.80;4.30;;;17.30;53.90;;;;;;10353445;28;20301;-63
2021/11/26 07:12:52;;;;;;;8.20;4.90;;;17.30;54.10;;;;;;10355616;28;20222;-62
2021/11/26 07:18:15;;;;;;;6.13;4.40;;;17.20;54.40;;;;;;10351347;28;20225;-63
2021/11/26 07:23:37;;;;;;;6.77;4.50;;;17.20;54.60;;;;;;10371080;28;20276;-62
2021/11/26 07:29:00;;;;;;;9.07;5.53;;;17.20;54.80;;;;;;10347478;28;20607;-63
2021/11/26 07:34:22;;;;;;;8.17;4.97;;;17.20;55.00;;;;;;10353146;28;20227;-62
2021/11/26 07:39:46;;;;;;;7.97;5.40;;;17.10;55.10;;;;;;10343338;28;20298;-62
2021/11/26 07:45:11;;;;;;;7.93;5.23;;;17.10;55.90;;;;;;10363232;28;20226;-63
2021/11/26 07:50:33;;;;;;;8.73;5.50;;;17.10;55.40;;;;;;10345664;28;20214;-63
2021/11/26 07:55:55;;;;;;;9.57;6.23;;;17.10;55.30;;;;;;10359831;28;20214;-62
2021/11/26 08:01:18;;;;;;;10.37;6.43;;;17.20;54.80;;;;;;10351197;28;20206;-62
2021/11/26 08:06:42;;;;;;;10.83;6.93;;;17.30;54.40;;;;;;10368096;28;20219;-62
2021/11/26 08:12:05;;;;;;;12.43;7.97;;;17.30;54.10;;;;;;10350363;28;20733;-61
2021/11/26 08:17:28;;;;;;;11.80;7.43;;;17.40;54.50;;;;;;10354452;28;20229;-63
2021/11/26 08:22:51;;;;;;;12.93;8.27;;;17.40;54.00;;;;;;10365262;28;20417;-62
2021/11/26 08:28:13;;;;;;;10.97;7.87;;;17.50;54.20;;;;;;10379051;28;20214;-63
2021/11/26 08:33:36;;;;;;;11.93;7.80;;;17.40;54.10;;;;;;10348551;28;20227;-63
2021/11/26 08:38:59;;;;;;;14.07;8.83;;;17.30;54.40;;;;;;10363993;28;20696;-63
2021/11/26 08:44:21;;;;;;;11.17;7.63;;;17.20;54.60;;;;;;10352849;28;20203;-63
2021/11/26 08:49:45;;;;;;;11.20;7.53;;;17.20;54.80;;;;;;10347355;28;20673;-64
2021/11/26 08:55:11;;;;;;;11.67;8.57;;;17.10;55.00;;;;;;10332508;28;20234;-63
2021/11/26 09:00:36;;;;;;;13.87;8.30;;;17.10;55.20;;;;;;10352410;28;20684;-63
2021/11/26 09:06:00;;;;;;;10.60;7.63;;;17.10;55.40;;;;;;10385778;28;20214;-63
2021/11/26 09:11:23;;;;;;;13.80;7.93;;;17.00;55.40;;;;;;10356895;28;20676;-63
2021/11/26 09:16:45;;;;;;;13.10;8.37;;;17.00;55.70;;;;;;10368909;28;20222;-63
2021/11/26 09:22:08;;;;;;;11.67;8.83;;;17.00;55.50;;;;;;10367181;28;20210;-62
2021/11/26 09:27:31;;;;;;;13.43;9.23;;;17.10;55.20;;;;;;10367253;28;20233;-62
2021/11/26 09:32:53;;;;;;;13.30;9.00;;;17.20;54.80;;;;;;10364135;28;20222;-63
2021/11/26 09:38:17;;;;;;;12.57;9.20;;;17.30;54.40;;;;;;10365497;28;20722;-63
2021/11/26 09:43:39;;;;;;;12.63;8.60;;;17.30;54.00;;;;;;10369767;28;20198;-63
2021/11/26 09:49:01;;;;;;;11.60;8.37;;;17.30;54.10;;;;;;10367900;28;20745;-63
2021/11/26 09:54:25;;;;;;;13.00;8.87;;;17.30;54.20;;;;;;10363638;28;20691;-63
2021/11/26 09:59:47;;;;;;;10.97;7.47;;;17.30;54.40;;;;;;10372742;28;20217;-63
2021/11/26 10:05:10;;;;;;;12.60;7.87;;;17.20;54.60;;;;;;10366222;28;20241;-63
2021/11/26 10:10:37;;;;;;;12.03;7.97;;;17.20;54.80;;;;;;10368910;28;20198;-62
2021/11/26 10:16:09;;;;;;;10.33;6.77;;;17.20;55.10;;;;;;10366756;28;20210;-63
2021/11/26 10:21:32;;;;;;;10.90;7.67;;;17.10;55.10;;;;;;10352747;28;20195;-62
2021/11/26 10:26:56;;;;;;;12.60;7.47;;;17.10;55.40;;;;;;10367607;28;20592;-63
2021/11/26 10:32:18;;;;;;;11.63;7.37;;;17.10;55.50;;;;;;10366759;28;20297;-63
2021/11/26 10:37:40;;;;;;;11.17;7.40;;;17.10;55.60;;;;;;10362992;28;20748;-63
2021/11/26 10:43:07;;;;;;;10.43;7.10;;;17.10;55.50;;;;;;10367644;28;20202;-63
2021/11/26 10:59:54;;;;;;;9.90;6.43;;;17.10;54.90;;;;;;10352275;28;20756;-63
2021/11/26 11:05:26;;;;;;;9.07;5.80;;;17.10;54.50;;;;;;10366870;28;20209;-63
2021/11/26 11:10:48;;;;;;;7.63;5.70;;;17.20;54.20;;;;;;10374511;28;20681;-62
2021/11/26 11:16:13;;;;;;;8.17;5.90;;;17.20;54.10;;;;;;10361436;28;20218;-63
2021/11/26 11:21:35;;;;;;;6.67;4.73;;;17.20;54.10;;;;;;10350376;28;20202;-62
2021/11/26 11:26:57;;;;;;;7.03;5.30;;;17.20;54.10;;;;;;10365572;28;20423;-62
2021/11/26 11:32:21;;;;;;;5.87;4.57;;;17.10;54.40;;;;;;10366231;28;20596;-62
2021/11/26 11:37:44;;;;;;;6.70;4.80;;;17.10;55.10;;;;;;10366184;28;20695;-62
2021/11/26 11:43:09;;;;;;;5.90;4.23;;;17.00;54.60;;;;;;10358543;28;20195;-62
2021/11/26 11:48:35;;;;;;;5.47;3.73;;;17.00;54.70;;;;;;10434286;22;20236;-70
2021/11/26 11:54:06;;;;;;;5.13;3.93;;;17.00;54.90;;;;;;10447958;28;20224;-70
2021/11/26 11:59:32;;;;;;;5.50;3.87;;;17.00;54.70;;;;;;10445105;28;20221;-73
2021/11/26 12:04:56;;;;;;;4.53;3.67;;;17.00;54.70;;;;;;10449515;28;20584;-72
2021/11/26 12:10:18;;;;;;;6.90;4.20;;;17.00;54.40;;;;;;10450667;28;20220;-72
2021/11/26 12:15:42;;;;;;;5.47;3.77;;;17.00;54.20;;;;;;10449233;28;20221;-71
2021/11/26 12:21:05;;;;;;;4.47;3.40;;;17.10;54.10;;;;;;10456423;28;20675;-70
2021/11/26 12:26:40;;;;;;;4.90;3.50;;;17.10;54.00;;;;;;10443799;28;20354;-72
2021/11/26 12:32:07;;;;;;;5.67;3.63;;;17.10;54.20;;;;;;10457633;28;20234;-73
2021/11/26 12:37:33;;;;;;;3.70;2.83;;;17.00;54.30;;;;;;10458155;28;20588;-72
2021/11/26 12:43:00;;;;;;;3.20;2.80;;;17.00;54.20;;;;;;10442111;28;20189;-72
2021/11/26 12:48:31;;;;;;;4.27;3.03;;;17.00;54.40;;;;;;10455927;28;20227;-71
2021/11/26 12:53:55;;;;;;;3.20;2.60;;;17.00;54.60;;;;;;10454956;28;20224;-73
2021/11/26 12:59:27;;;;;;;3.67;3.03;;;17.00;54.60;;;;;;10455127;28;20229;-71
2021/11/26 13:04:53;;;;;;;3.57;3.00;;;17.00;54.40;;;;;;10450061;28;20200;-73
2021/11/26 13:10:20;;;;;;;3.53;3.00;;;17.00;54.20;;;;;;10455180;28;20231;-65
2021/11/26 13:15:43;;;;;;;7.20;3.63;;;17.10;54.40;;;;;;10440280;28;20224;-72
2021/11/26 13:21:06;;;;;;;5.07;3.03;;;17.20;54.50;;;;;;10454795;28;20802;-73
2021/11/26 13:26:30;;;;;;;3.53;2.97;;;17.20;54.00;;;;;;10454834;28;20626;-72
2021/11/26 13:31:56;;;;;;;4.20;2.90;;;17.30;53.80;;;;;;10453489;28;20225;-71
2021/11/26 13:37:18;;;;;;;3.57;2.47;;;17.40;53.70;;;;;;10457187;28;20217;-73
2021/11/26 13:42:49;;;;;;;2.97;2.10;;;17.30;53.40;;;;;;10454127;28;20211;-71
2021/11/26 13:48:11;;;;;;;3.27;2.30;;;17.30;53.40;;;;;;10448703;28;20228;-65
2021/11/26 13:53:34;;;;;;;2.37;1.93;;;17.30;53.60;;;;;;10452777;28;20228;-66
2021/11/26 13:59:02;;;;;;;3.80;2.03;;;17.30;54.90;;;;;;10438564;28;20221;-66
2021/11/26 14:04:26;;;;;;;2.40;2.07;;;17.30;54.50;;;;;;10454610;28;20655;-67
2021/11/26 14:09:52;;;;;;;2.10;1.87;;;17.30;54.50;;;;;;10453105;28;20221;-68
2021/11/26 14:15:22;;;;;;;3.07;2.00;;;17.30;54.70;;;;;;10451613;28;20983;-70
2021/11/26 14:20:45;;;;;;;3.37;2.03;;;17.30;54.60;;;;;;10449636;28;20201;-70
2021/11/26 14:26:08;;;;;;;2.00;1.80;;;17.30;54.60;;;;;;10452100;28;20599;-69
2021/11/26 14:31:32;;;;;;;2.70;1.73;;;17.20;54.70;;;;;;10451712;28;20209;-67
2021/11/26 14:36:59;;;;;;;4.23;2.87;;;17.20;54.80;;;;;;10454096;28;20243;-67
2021/11/26 14:42:29;;;;;;;4.17;2.53;;;17.00;53.40;;;;;;10453188;28;20200;-68
2021/11/26 14:47:53;;;;;;;3.83;2.20;;;17.00;52.50;;;;;;10444671;28;20220;-68
2021/11/26 14:53:17;;;;;;;2.67;2.00;;;17.10;52.60;;;;;;10498470;28;20212;-68
2021/11/26 14:58:40;;;;;;;2.47;2.13;;;17.30;52.00;;;;;;10500199;28;20220;-71
2021/11/26 15:04:03;;;;;;;2.97;2.10;;;17.30;51.50;;;;;;10500804;28;20204;-70
2021/11/26 15:09:25;;;;;;;2.40;1.67;;;17.40;51.70;;;;;;10491079;28;20591;-71
2021/11/26 15:14:48;;;;;;;2.40;1.80;;;17.50;51.60;;;;;;10492665;28;20212;-70
2021/11/26 15:20:12;;;;;;;2.70;2.13;;;17.40;51.80;;;;;;10500825;28;20229;-65
2021/11/26 15:25:35;;;;;;;2.47;1.70;;;17.40;51.50;;;;;;10488614;28;20196;-67
2021/11/26 15:30:57;;;;;;;1.83;1.53;;;17.40;51.80;;;;;;10492853;28;20196;-66
2021/11/26 15:36:20;;;;;;;3.57;2.10;;;17.40;52.20;;;;;;10489938;28;20223;-65
2021/11/26 15:41:45;;;;;;;3.10;2.10;;;17.40;52.70;;;;;;10475919;28;20206;-65
2021/11/26 15:47:07;;;;;;;3.17;2.03;;;17.40;53.00;;;;;;10489721;28;20247;-65
2021/11/26 15:52:32;;;;;;;3.67;2.37;;;17.40;53.20;;;;;;10493632;28;20216;-66
2021/11/26 15:57:54;;;;;;;2.33;1.60;;;17.40;53.40;;;;;;10500019;28;20255;-65
2021/11/26 16:03:16;;;;;;;2.70;1.80;;;17.40;53.60;;;;;;10499271;28;20192;-68
2021/11/26 16:08:39;;;;;;;2.37;1.90;;;17.40;53.70;;;;;;10498696;28;20220;-68
2021/11/26 16:14:01;;;;;;;2.70;1.83;;;17.30;53.70;;;;;;10488428;28;20224;-68
2021/11/26 16:19:24;;;;;;;2.30;1.80;;;17.30;53.70;;;;;;10507049;28;20228;-67
2021/11/26 16:24:47;;;;;;;2.80;2.00;;;17.30;53.80;;;;;;10497419;28;20251;-67
2021/11/26 16:30:11;;;;;;;1.93;1.73;;;17.30;53.80;;;;;;10481391;28;20220;-67
2021/11/26 16:35:37;;;;;;;2.10;1.87;;;17.30;53.40;;;;;;10495936;28;20307;-64
2021/11/26 16:41:01;;;;;;;2.50;1.60;;;17.40;52.90;;;;;;10511278;28;20678;-65
2021/11/26 16:46:23;;;;;;;2.23;1.70;;;17.50;52.30;;;;;;10487610;28;20228;-65
2021/11/26 16:51:49;;;;;;;2.27;1.67;;;17.60;52.70;;;;;;10490192;28;20196;-67
2021/11/26 16:57:12;;;;;;;1.90;1.70;;;17.60;52.10;;;;;;10489840;28;20208;-68
2021/11/26 17:02:34;;;;;;;2.40;1.50;;;17.70;51.90;;;;;;10497135;28;20735;-68
2021/11/26 17:07:57;;;;;;;3.90;1.70;;;17.70;52.00;;;;;;10503042;28;20215;-68
2021/11/26 17:13:21;;;;;;;2.03;1.80;;;17.70;52.10;;;;;;10490024;28;20698;-67
2021/11/26 17:18:43;;;;;;;3.97;1.50;;;17.60;51.70;;;;;;10492006;28;20212;-66
2021/11/26 17:24:05;;;;;;;2.60;1.90;;;17.50;51.90;;;;;;10496770;28;20934;-67
2021/11/26 17:29:29;;;;;;;2.10;1.60;;;17.90;50.90;;;;;;10496259;28;20220;-67
2021/11/26 17:34:51;;;;;;;1.70;1.43;;;17.70;51.60;;;;;;10495001;28;20224;-67
2021/11/26 17:40:16;;;;;;;2.37;1.33;;;17.50;52.10;;;;;;10489934;28;20224;-68
2021/11/26 17:45:39;;;;;;;1.67;1.57;;;17.50;52.50;;;;;;10489841;28;20226;-67
2021/11/26 17:51:01;;;;;;;1.70;1.60;;;17.40;52.70;;;;;;10489624;28;20199;-67
2021/11/26 17:56:24;;;;;;;1.70;1.53;;;17.30;52.70;;;;;;10521190;28;20609;-67
2021/11/26 18:01:48;;;;;;;3.93;1.37;;;17.30;52.80;;;;;;10530763;28;20191;-67
2021/11/26 18:12:27;;;;;;;2.00;1.73;;;17.30;52.90;;;;;;10409421;28;20224;-66
2021/11/26 18:17:51;;;;;;;1.87;1.67;;;17.30;53.00;;;;;;10431141;28;20217;-65
2021/11/26 18:23:15;;;;;;;2.57;2.27;;;17.30;52.70;;;;;;10448891;28;20220;-67
2021/11/26 18:28:37;;;;;;;1.77;1.63;;;17.30;52.20;;;;;;10450510;28;20224;-65
2021/11/26 18:34:01;;;;;;;2.20;1.73;;;17.40;51.90;;;;;;10450774;28;20205;-66
2021/11/26 18:39:23;;;;;;;1.57;1.37;;;17.40;51.50;;;;;;10448564;28;20653;-65
2021/11/26 18:44:45;;;;;;;1.80;1.57;;;17.50;52.50;;;;;;10448722;28;20212;-66
2021/11/26 18:50:10;;;;;;;1.97;1.80;;;17.60;51.20;;;;;;10448245;28;20189;-66
2021/11/26 18:55:32;;;;;;;2.43;1.90;;;17.60;50.70;;;;;;10447420;28;20229;-66
2021/11/26 19:00:54;;;;;;;1.67;1.57;;;17.60;50.50;;;;;;10444436;28;20197;-66
2021/11/26 19:06:18;;;;;;;1.20;1.10;;;17.60;50.70;;;;;;10443856;28;20656;-66
2021/11/26 19:11:40;;;;;;;3.20;1.80;;;17.60;50.80;;;;;;10444189;28;20736;-67
2021/11/26 19:17:03;;;;;;;1.93;1.77;;;17.70;50.30;;;;;;10443876;28;20209;-67
2021/11/26 19:22:28;;;;;;;2.33;1.97;;;17.70;50.10;;;;;;10442024;28;20201;-67
2021/11/26 19:27:50;;;;;;;2.30;1.80;;;17.70;50.00;;;;;;10449551;28;20213;-67
2021/11/26 19:33:13;;;;;;;2.20;1.43;;;17.70;50.10;;;;;;10453241;28;20366;-66
2021/11/26 19:38:36;;;;;;;1.63;1.50;;;17.70;50.10;;;;;;10452506;28;20221;-65
2021/11/26 19:43:58;;;;;;;2.07;1.40;;;17.70;50.00;;;;;;10451804;28;20200;-65
2021/11/26 19:49:20;;;;;;;1.80;1.60;;;17.60;50.30;;;;;;10450942;28;20201;-65
2021/11/26 19:54:44;;;;;;;3.13;2.53;;;17.60;50.60;;;;;;10452617;28;20225;-65
2021/11/26 20:00:09;;;;;;;2.27;1.97;;;17.50;50.90;;;;;;10451403;28;20208;-66
2021/11/26 20:05:31;;;;;;;1.70;1.60;;;17.50;51.30;;;;;;10449640;28;20221;-66
2021/11/26 20:10:59;;;;;;;2.17;1.80;;;17.50;51.30;;;;;;10451799;28;20217;-69
2021/11/26 20:16:22;;;;;;;1.63;1.53;;;17.50;51.70;;;;;;10451149;28;20720;-67
2021/11/26 20:21:44;;;;;;;2.57;1.90;;;17.50;51.70;;;;;;10449999;28;20244;-69
2021/11/26 20:27:08;;;;;;;2.77;2.03;;;17.40;51.80;;;;;;10451551;28;20228;-69
2021/11/26 20:32:30;;;;;;;2.50;1.80;;;17.40;51.80;;;;;;10454728;28;20196;-68
2021/11/26 20:37:52;;;;;;;2.23;1.60;;;17.40;51.80;;;;;;10456400;28;20583;-68
2021/11/26 20:43:16;;;;;;;2.40;1.80;;;17.40;51.80;;;;;;10447824;28;20196;-68
2021/11/26 20:48:40;;;;;;;2.30;1.63;;;17.40;51.90;;;;;;10449075;28;20221;-67
2021/11/26 20:54:03;;;;;;;2.73;1.87;;;17.40;52.10;;;;;;10456577;28;20212;-68
2021/11/26 20:59:26;;;;;;;2.20;1.60;;;17.40;51.90;;;;;;10456110;28;20204;-67
2021/11/26 21:04:48;;;;;;;2.37;1.73;;;17.40;51.90;;;;;;10455127;28;20220;-66
2021/11/26 21:10:11;;;;;;;2.43;1.83;;;17.40;52.10;;;;;;10454512;28;20208;-67
2021/11/26 21:15:35;;;;;;;2.30;1.87;;;17.30;52.00;;;;;;10454371;28;20243;-66
2021/11/26 21:20:57;;;;;;;1.93;1.50;;;17.40;51.70;;;;;;10454676;28;20201;-67
2021/11/26 21:26:20;;;;;;;1.87;1.60;;;17.40;51.60;;;;;;10453574;28;20213;-66
2021/11/26 21:31:44;;;;;;;2.23;1.67;;;17.40;51.60;;;;;;10448129;28;20193;-66
2021/11/26 21:37:06;;;;;;;2.90;2.40;;;17.40;51.80;;;;;;10454310;28;20220;-65
2021/11/26 21:42:28;;;;;;;2.00;1.80;;;17.50;51.10;;;;;;10454078;28;20563;-66
2021/11/26 21:47:53;;;;;;;2.97;2.33;;;17.60;50.80;;;;;;10453162;28;20721;-66
2021/11/26 21:53:15;;;;;;;2.40;2.10;;;17.50;51.00;;;;;;10453027;28;20209;-66
2021/11/26 21:58:37;;;;;;;2.87;2.07;;;17.40;51.20;;;;;;10453926;28;20209;-66
2021/11/26 22:04:01;;;;;;;3.27;1.97;;;17.40;51.70;;;;;;10453264;28;20201;-67
2021/11/26 22:09:23;;;;;;;2.50;1.83;;;17.40;51.80;;;;;;10450846;28;20197;-66
2021/11/26 22:14:45;;;;;;;1.83;1.73;;;17.40;51.90;;;;;;10452218;28;20217;-66
2021/11/26 22:20:11;;;;;;;2.20;2.00;;;17.30;52.10;;;;;;10452166;28;20201;-66
2021/11/26 22:25:34;;;;;;;3.53;2.00;;;17.30;52.70;;;;;;10452139;28;20229;-66
2021/11/26 22:30:56;;;;;;;1.70;1.60;;;17.30;52.10;;;;;;10449972;28;20201;-65
2021/11/26 22:36:19;;;;;;;4.17;2.43;;;17.20;51.90;;;;;;10451593;28;20221;-65
2021/11/26 22:41:42;;;;;;;2.77;2.37;;;17.30;51.70;;;;;;10452377;28;20197;-66
2021/11/26 22:47:07;;;;;;;2.97;2.00;;;17.30;51.80;;;;;;10452148;28;20227;-68
2021/11/26 22:52:30;;;;;;;2.20;2.00;;;17.30;51.90;;;;;;10451306;28;20284;-68
2021/11/26 22:57:54;;;;;;;2.27;2.07;;;17.30;51.90;;;;;;10450970;28;20213;-67
2021/11/26 23:03:19;;;;;;;2.17;1.97;;;17.30;51.90;;;;;;10450936;28;20200;-69
2021/11/26 23:08:44;;;;;;;2.40;1.90;;;17.20;52.00;;;;;;10448585;28;20220;-66
2021/11/26 23:14:08;;;;;;;2.73;2.13;;;17.20;52.10;;;;;;10450539;28;20556;-67
2021/11/26 23:19:30;;;;;;;2.23;2.03;;;17.20;52.00;;;;;;10450252;28;20705;-68
2021/11/26 23:24:54;;;;;;;2.30;1.90;;;17.20;51.90;;;;;;10449691;28;20217;-68
2021/11/26 23:30:17;;;;;;;3.63;1.90;;;17.20;52.00;;;;;;10449639;28;20204;-67
2021/11/26 23:35:40;;;;;;;2.83;2.13;;;17.20;52.10;;;;;;10451937;28;20221;-68
2021/11/26 23:41:04;;;;;;;2.53;1.90;;;17.20;51.80;;;;;;10449283;28;20200;-68
2021/11/26 23:46:27;;;;;;;3.57;1.87;;;17.20;51.80;;;;;;10449892;28;20259;-68
2021/11/26 23:51:50;;;;;;;2.77;2.13;;;17.20;52.00;;;;;;10450881;28;20193;-68
2021/11/26 23:57:13;;;;;;;1.87;1.73;;;17.20;52.00;;;;;;10450010;28;20274;-67
